Observations for Trim Market St
| Time | AQI | Temp °C | Hum % | Pres Pa | CO μg/m³ | H₂S μg/m³ | NO μg/m³ | NO₂ μg/m³ | O₃ μg/m³ | SO₂ μg/m³ | PM1 μg/m³ | PM2.5 μg/m³ | PM10 μg/m³ |
|---|---|---|---|---|---|---|---|---|---|---|---|---|---|
| Thursday 13 August 2026 | |||||||||||||
| 18:48 | 3 | 32.5 | 39 | 66,027 | 0 | 16.83 | 0.23 | 25.03 | 60.2 | 0.69 | 0 | 2.38 | 2.62 |
| 18:44 | 3 | 32.6 | 39 | 66,056 | 0 | 20.13 | 0.23 | 26.86 | 60.32 | 0.74 | 0.71 | 3.44 | 3.48 |
| 18:39 | 3 | 32.7 | 39 | 66,147 | 0 | 24.3 | 0.2 | 34.33 | 59.68 | 1.07 | 0 | 2.93 | 4.28 |
| 18:38 | 3 | 32.7 | 39 | 66,151 | 0 | 24.48 | 0.2 | 36.16 | 57.33 | 1 | 0 | 2.41 | 2.65 |
| 18:35 | 3 | 32.8 | 38 | 66,163 | 0 | 24.02 | 0.14 | 35.25 | 58.37 | 0.82 | 0.71 | 3.49 | 3.84 |
| 18:30 | 3 | 33.1 | 37 | 66,262 | 0 | 21.74 | 0.12 | 26.11 | 63.24 | 1.46 | 0 | 3 | 3.42 |
| 18:29 | 3 | 33.1 | 37 | 66,288 | 0 | 21.85 | 0.13 | 34.6 | 58.27 | 0.87 | 0 | 3.01 | 3.31 |
| 18:28 | 3 | 33.2 | 37 | 66,296 | 0 | 20.79 | 0.11 | 32.81 | 59.62 | 0.94 | 0 | 3.01 | 3.31 |
| 18:27 | 3 | 33.3 | 37 | 66,303 | 0 | 20.84 | 0.12 | 27.44 | 58.44 | 1.35 | 0 | 3.02 | 3.32 |
| 18:26 | 3 | 33.3 | 37 | 66,319 | 0 | 23.21 | 0.1 | 26.6 | 63.52 | 1.99 | 0 | 2.49 | 2.73 |
| 18:25 | 3 | 33.4 | 37 | 66,364 | 0 | 20.54 | 0.12 | 25.65 | 59.92 | 1.24 | 0 | 2.49 | 2.74 |
| 18:24 | 3 | 33.5 | 37 | 66,359 | 0 | 29.5 | 0.09 | 29.39 | 61.53 | 2 | 0 | 3.02 | 3.33 |
| 18:23 | 3 | 33.5 | 37 | 66,355 | 1.37 | 32.17 | 0.09 | 29.75 | 61.48 | 3.02 | 0 | 3.03 | 3.33 |
| 18:22 | 3 | 33.6 | 36 | 66,380 | 0 | 24 | 0.07 | 30.19 | 61.45 | 1.36 | 0.71 | 3.03 | 3.33 |
| 18:21 | 3 | 33.6 | 36 | 66,353 | 0 | 25.78 | 0.1 | 39.78 | 58.11 | 1.93 | 0 | 3.57 | 3.93 |
| 18:20 | 3 | 33.7 | 36 | 66,374 | 0 | 24.32 | 0.08 | 22.33 | 63.89 | 2.41 | 0 | 3.04 | 3.34 |
| 18:19 | 3 | 33.7 | 36 | 66,400 | 0 | 27.25 | 0.1 | 30.24 | 62.46 | 2.17 | 0.71 | 3.04 | 3.39 |
| 18:18 | 3 | 33.8 | 36 | 66,437 | 0 | 28.95 | 0.1 | 48.46 | 56.38 | 1.31 | 0.71 | 3.58 | 3.94 |
| 18:17 | 3 | 33.8 | 36 | 66,423 | 0 | 28.22 | 0.1 | 45.85 | 55.97 | 1.48 | 1.43 | 4.13 | 5.87 |
| 18:13 | 3 | 34 | 35 | 66,449 | 0 | 26.48 | 0.06 | 34.79 | 60.4 | 2.1 | 0 | 3.08 | 3.39 |